createdAt,value
2022-08-31T00:00:42.134Z,19.40
2022-08-31T00:03:27.926Z,19.40
2022-08-31T00:05:59.307Z,19.40
2022-08-31T00:08:27.196Z,19.30
2022-08-31T00:10:55.420Z,19.30
2022-08-31T00:13:23.390Z,19.30
2022-08-31T00:15:51.008Z,19.30
2022-08-31T00:18:18.445Z,19.30
2022-08-31T00:20:46.198Z,19.30
2022-08-31T00:23:14.563Z,19.30
2022-08-31T00:25:43.730Z,19.30
2022-08-31T00:28:11.327Z,19.20
2022-08-31T00:30:38.992Z,19.20
2022-08-31T00:33:07.392Z,19.20
2022-08-31T00:35:36.230Z,19.20
2022-08-31T00:38:04.767Z,19.20
2022-08-31T00:40:32.397Z,19.20
2022-08-31T00:43:00.129Z,19.20
2022-08-31T00:45:27.748Z,19.10
2022-08-31T00:47:55.308Z,19.10
2022-08-31T00:50:25.324Z,19.10
2022-08-31T00:52:58.165Z,19.10
2022-08-31T00:55:29.798Z,19.10
2022-08-31T00:57:58.293Z,19.10
2022-08-31T01:00:26.565Z,19.10
2022-08-31T01:02:55.074Z,19.10
2022-08-31T01:05:22.479Z,19.00
2022-08-31T01:07:49.813Z,19.00
2022-08-31T01:10:18.189Z,19.00
2022-08-31T01:12:45.989Z,19.00
2022-08-31T01:15:13.630Z,19.00
2022-08-31T01:17:41.106Z,19.00
2022-08-31T01:20:22.591Z,19.10
2022-08-31T01:23:06.509Z,19.00
2022-08-31T01:25:36.111Z,19.10
2022-08-31T01:28:04.962Z,19.00
2022-08-31T01:30:32.509Z,19.00
2022-08-31T01:32:59.970Z,19.00
2022-08-31T01:35:27.432Z,19.00
2022-08-31T01:37:56.239Z,19.00
2022-08-31T01:40:52.653Z,19.00
2022-08-31T01:43:20.348Z,18.90
2022-08-31T01:45:48.064Z,18.90
2022-08-31T01:48:15.572Z,18.90
2022-08-31T01:50:43.055Z,18.90
2022-08-31T01:53:11.173Z,18.90
2022-08-31T01:55:39.169Z,18.90
2022-08-31T01:58:06.683Z,18.90
2022-08-31T02:00:52.661Z,18.90
2022-08-31T02:03:21.123Z,18.90
2022-08-31T02:05:48.538Z,18.80
2022-08-31T02:08:16.034Z,18.80
2022-08-31T02:10:43.483Z,18.80
2022-08-31T02:13:10.996Z,18.80
2022-08-31T02:15:38.354Z,18.70
2022-08-31T02:18:06.466Z,18.70
2022-08-31T02:20:33.849Z,18.70
2022-08-31T02:23:03.431Z,18.70
2022-08-31T02:25:31.141Z,18.70
2022-08-31T02:28:00.595Z,18.60
2022-08-31T02:30:29.431Z,18.60
2022-08-31T02:32:57.893Z,18.60
2022-08-31T02:35:25.276Z,18.60
2022-08-31T02:37:52.883Z,18.60
2022-08-31T02:40:20.460Z,18.60
2022-08-31T02:42:52.925Z,18.60
2022-08-31T02:45:22.589Z,18.50
2022-08-31T02:47:50.017Z,18.50
2022-08-31T02:50:28.055Z,18.50
2022-08-31T02:52:56.807Z,18.50
2022-08-31T02:55:25.059Z,18.40
2022-08-31T02:57:52.587Z,18.50
2022-08-31T03:00:21.706Z,18.40
2022-08-31T03:02:49.236Z,18.40
2022-08-31T03:05:16.942Z,18.40
2022-08-31T03:07:45.401Z,18.40
2022-08-31T03:10:14.757Z,18.40
2022-08-31T03:12:42.223Z,18.40
2022-08-31T03:15:10.111Z,18.40
2022-08-31T03:17:37.558Z,18.40
2022-08-31T03:20:06.179Z,18.40
2022-08-31T03:22:34.276Z,18.40
2022-08-31T03:25:02.333Z,18.40
2022-08-31T03:27:30.340Z,18.40
2022-08-31T03:29:58.235Z,18.40
2022-08-31T03:32:28.596Z,18.40
2022-08-31T03:34:56.816Z,18.40
2022-08-31T03:37:24.695Z,18.40
2022-08-31T03:39:54.703Z,18.40
2022-08-31T03:42:22.043Z,18.40
2022-08-31T03:44:49.501Z,18.40
2022-08-31T03:47:22.418Z,18.40
2022-08-31T03:49:50.974Z,18.40
2022-08-31T03:52:25.991Z,18.40
2022-08-31T03:55:00.950Z,18.40
2022-08-31T03:57:28.534Z,18.40
2022-08-31T03:59:57.569Z,18.40
2022-08-31T04:02:43.070Z,18.40
2022-08-31T04:05:35.208Z,18.40
2022-08-31T04:08:08.672Z,18.40
2022-08-31T04:10:51.872Z,18.30
2022-08-31T04:13:38.410Z,18.30
2022-08-31T04:16:24.692Z,18.30
2022-08-31T04:18:54.989Z,18.40
2022-08-31T04:21:25.316Z,18.40
2022-08-31T04:23:53.140Z,18.40
2022-08-31T04:26:23.519Z,18.40
2022-08-31T04:28:50.956Z,18.40
2022-08-31T04:31:19.336Z,18.40
2022-08-31T04:33:47.058Z,18.40
2022-08-31T04:36:18.923Z,18.40
2022-08-31T04:38:48.794Z,18.40
2022-08-31T04:41:18.510Z,18.40
2022-08-31T04:43:51.138Z,18.40
2022-08-31T04:46:18.927Z,18.40
2022-08-31T04:48:46.511Z,18.40
2022-08-31T04:51:17.684Z,18.40
2022-08-31T04:53:45.445Z,18.40
2022-08-31T04:56:15.121Z,18.40
2022-08-31T04:58:48.464Z,18.40
2022-08-31T05:01:17.614Z,18.50
2022-08-31T05:04:09.048Z,18.40
2022-08-31T05:06:37.517Z,18.50
2022-08-31T05:09:07.496Z,18.50
2022-08-31T05:11:35.255Z,18.50
2022-08-31T05:14:03.666Z,18.50
2022-08-31T05:16:31.240Z,18.50
2022-08-31T05:18:58.898Z,18.50
2022-08-31T05:21:32.096Z,18.40
2022-08-31T05:24:04.211Z,18.50
2022-08-31T05:26:34.415Z,18.50
2022-08-31T05:29:03.111Z,18.50
2022-08-31T05:31:33.809Z,18.50
2022-08-31T05:34:02.351Z,18.50
2022-08-31T05:36:37.119Z,18.50
2022-08-31T05:39:09.373Z,18.50
2022-08-31T05:41:36.792Z,18.50
2022-08-31T05:44:05.260Z,18.50
2022-08-31T05:46:34.623Z,18.50
2022-08-31T05:49:03.085Z,18.50
2022-08-31T05:51:34.927Z,18.50
2022-08-31T05:54:05.699Z,18.50
2022-08-31T05:56:34.495Z,18.50
2022-08-31T05:59:02.066Z,18.60
2022-08-31T06:01:31.916Z,18.60
2022-08-31T06:04:02.358Z,18.60
2022-08-31T06:06:29.997Z,18.60
2022-08-31T06:08:57.619Z,18.50
2022-08-31T06:11:27.628Z,18.60
2022-08-31T06:13:56.434Z,18.60
2022-08-31T06:16:25.282Z,18.60
2022-08-31T06:18:55.647Z,18.60
2022-08-31T06:21:30.112Z,18.60
2022-08-31T06:23:59.646Z,18.60
2022-08-31T06:26:29.394Z,18.70
2022-08-31T06:28:59.003Z,18.70
2022-08-31T06:31:37.970Z,18.80
2022-08-31T06:34:08.274Z,18.80
2022-08-31T06:36:53.982Z,18.80
2022-08-31T06:39:33.902Z,18.70
2022-08-31T06:42:24.412Z,18.70
2022-08-31T06:45:01.862Z,18.70
2022-08-31T06:47:49.413Z,18.70
2022-08-31T06:50:19.001Z,18.70
2022-08-31T06:52:48.904Z,18.80
2022-08-31T06:55:24.555Z,18.80
2022-08-31T06:58:10.318Z,18.70
2022-08-31T07:00:40.223Z,18.70
2022-08-31T07:03:33.285Z,18.70
2022-08-31T07:06:25.039Z,18.70
2022-08-31T07:08:55.019Z,18.70
2022-08-31T07:11:28.288Z,18.70
2022-08-31T07:13:56.583Z,18.70
2022-08-31T07:16:25.577Z,18.70
2022-08-31T07:18:54.566Z,18.80
2022-08-31T07:21:31.002Z,18.80
2022-08-31T07:23:59.604Z,18.80
2022-08-31T07:26:36.458Z,18.90
2022-08-31T07:29:06.904Z,18.80
2022-08-31T07:31:40.259Z,18.90
2022-08-31T07:34:08.232Z,18.90
2022-08-31T07:37:02.937Z,18.90
2022-08-31T07:39:51.503Z,18.90
2022-08-31T07:42:22.083Z,18.90
2022-08-31T07:44:51.949Z,18.90
2022-08-31T07:47:22.572Z,18.90
2022-08-31T07:49:52.714Z,19.00
2022-08-31T07:52:48.753Z,19.00
2022-08-31T07:55:37.058Z,19.10
2022-08-31T07:58:15.444Z,19.10
2022-08-31T08:00:49.387Z,19.10
2022-08-31T08:03:16.992Z,19.10
2022-08-31T08:06:12.862Z,19.10
2022-08-31T08:09:25.718Z,19.10
2022-08-31T08:12:07.437Z,19.20
2022-08-31T08:14:59.179Z,19.20
2022-08-31T08:17:54.796Z,19.20
2022-08-31T08:20:34.490Z,19.20
2022-08-31T08:23:14.615Z,19.30
2022-08-31T08:26:01.103Z,19.30
2022-08-31T08:28:47.276Z,19.30
2022-08-31T08:31:16.979Z,19.30
2022-08-31T08:33:45.066Z,19.30
2022-08-31T08:36:12.756Z,19.30
2022-08-31T08:38:43.572Z,19.30
2022-08-31T08:41:15.988Z,19.30
2022-08-31T08:43:48.005Z,19.30
2022-08-31T08:47:38.444Z,19.30
2022-08-31T08:49:29.059Z,19.40
2022-08-31T08:52:03.185Z,19.50
2022-08-31T08:54:37.942Z,19.50
2022-08-31T08:57:10.043Z,19.50
2022-08-31T08:59:37.488Z,19.60
2022-08-31T09:02:09.450Z,19.60
2022-08-31T09:04:49.375Z,19.60
2022-08-31T09:07:44.479Z,19.60
2022-08-31T09:10:27.603Z,19.60
2022-08-31T09:13:23.383Z,19.60
2022-08-31T09:16:10.523Z,19.70
2022-08-31T09:18:43.858Z,19.80
2022-08-31T09:21:25.543Z,19.80
2022-08-31T09:23:59.588Z,19.90
2022-08-31T09:26:27.918Z,20.00
2022-08-31T09:29:13.915Z,20.00
2022-08-31T09:31:42.194Z,20.00
2022-08-31T09:34:28.431Z,20.00
2022-08-31T09:37:15.016Z,20.00
2022-08-31T09:39:47.641Z,20.00
2022-08-31T09:42:20.171Z,20.00
2022-08-31T09:44:49.138Z,20.00
2022-08-31T09:47:55.721Z,20.10
2022-08-31T09:50:33.683Z,20.10
2022-08-31T09:53:44.248Z,20.10
2022-08-31T09:56:17.063Z,20.20
2022-08-31T09:58:48.591Z,20.20
2022-08-31T10:01:29.467Z,20.30
2022-08-31T10:04:19.699Z,20.40
2022-08-31T10:07:28.744Z,20.40
2022-08-31T10:10:08.182Z,20.40
2022-08-31T10:13:03.848Z,20.40
2022-08-31T10:15:42.138Z,20.30
2022-08-31T10:18:14.743Z,20.30
2022-08-31T10:20:48.287Z,20.40
2022-08-31T10:23:36.129Z,20.40
2022-08-31T10:26:35.115Z,20.30
2022-08-31T10:29:06.663Z,20.30
2022-08-31T10:31:45.299Z,20.40
2022-08-31T10:34:43.448Z,20.40
2022-08-31T10:37:49.653Z,20.40
2022-08-31T10:40:20.044Z,20.30
2022-08-31T10:42:59.228Z,20.30
2022-08-31T10:45:28.945Z,20.20
2022-08-31T10:47:56.721Z,20.20
2022-08-31T10:50:46.164Z,20.10
2022-08-31T10:53:39.721Z,20.10
2022-08-31T10:56:20.956Z,20.10
2022-08-31T10:59:10.364Z,20.10
2022-08-31T11:01:57.902Z,20.10
2022-08-31T11:04:52.639Z,20.10
2022-08-31T11:07:32.101Z,20.00
2022-08-31T11:10:13.342Z,20.10
2022-08-31T11:12:42.874Z,20.00
2022-08-31T11:15:37.318Z,20.00
2022-08-31T11:18:04.771Z,20.00
2022-08-31T11:20:49.160Z,20.00
2022-08-31T11:23:32.282Z,20.10
2022-08-31T11:26:18.490Z,20.00
2022-08-31T11:29:00.345Z,19.90
2022-08-31T11:31:30.292Z,19.90
2022-08-31T11:34:17.435Z,19.80
2022-08-31T11:37:01.097Z,19.70
2022-08-31T11:39:35.886Z,19.60
2022-08-31T11:42:20.611Z,19.50
2022-08-31T11:45:07.590Z,19.40
2022-08-31T11:47:43.233Z,19.30
2022-08-31T11:50:22.640Z,19.20
2022-08-31T11:52:53.530Z,19.20
2022-08-31T11:55:28.377Z,19.20
2022-08-31T11:58:08.965Z,19.10
2022-08-31T12:00:52.453Z,19.10
2022-08-31T12:03:52.537Z,19.10
2022-08-31T12:06:28.072Z,19.10
2022-08-31T12:09:11.203Z,19.00
2022-08-31T12:12:06.602Z,19.00
2022-08-31T12:14:58.064Z,18.90
2022-08-31T12:17:36.674Z,18.90
2022-08-31T12:20:28.339Z,18.80
2022-08-31T12:23:48.494Z,18.60
2022-08-31T12:26:41.772Z,18.50
2022-08-31T12:29:30.153Z,18.40
2022-08-31T12:32:26.072Z,18.30
2022-08-31T12:35:09.661Z,18.30
2022-08-31T12:37:37.874Z,18.20
2022-08-31T12:40:18.165Z,18.20
2022-08-31T12:43:05.176Z,18.20
2022-08-31T12:45:47.458Z,18.10
2022-08-31T12:48:36.032Z,18.10
2022-08-31T12:51:35.206Z,18.10
2022-08-31T12:54:07.583Z,18.00
2022-08-31T12:56:38.044Z,18.00
2022-08-31T12:59:20.533Z,17.90
2022-08-31T13:01:49.449Z,17.90
2022-08-31T13:04:17.494Z,17.90
2022-08-31T13:06:48.128Z,17.80
2022-08-31T13:09:29.396Z,17.80
2022-08-31T13:11:58.722Z,17.80
2022-08-31T13:14:30.371Z,17.80
2022-08-31T13:17:04.071Z,17.80
2022-08-31T13:19:33.311Z,17.70
2022-08-31T13:22:16.908Z,17.80
2022-08-31T13:24:51.328Z,17.70
2022-08-31T13:27:24.671Z,17.70
2022-08-31T13:29:53.404Z,17.70
2022-08-31T13:32:33.779Z,17.70
2022-08-31T13:35:08.415Z,17.70
2022-08-31T13:37:41.408Z,17.60
2022-08-31T13:40:16.788Z,17.60
2022-08-31T13:42:45.666Z,17.60
2022-08-31T13:45:29.109Z,17.70
2022-08-31T13:47:58.273Z,17.60
2022-08-31T13:50:52.343Z,17.60
2022-08-31T13:53:41.051Z,17.60
2022-08-31T13:56:46.836Z,17.60
2022-08-31T13:59:16.978Z,17.70
2022-08-31T14:01:48.087Z,17.70
2022-08-31T14:04:48.691Z,17.70
2022-08-31T14:07:23.948Z,17.80
2022-08-31T14:10:04.758Z,17.80
2022-08-31T14:12:36.494Z,17.80
2022-08-31T14:15:09.284Z,17.80
2022-08-31T14:18:23.983Z,17.80
2022-08-31T14:20:44.158Z,17.80
2022-08-31T14:23:27.130Z,17.80
2022-08-31T14:25:59.828Z,17.80
2022-08-31T14:28:43.227Z,17.70
2022-08-31T14:31:25.908Z,17.70
2022-08-31T14:34:02.302Z,17.70
2022-08-31T14:36:33.438Z,17.70
2022-08-31T14:39:01.170Z,17.70
2022-08-31T14:41:32.663Z,17.70
2022-08-31T14:44:07.039Z,17.70
2022-08-31T14:46:34.400Z,17.70
2022-08-31T14:49:01.736Z,17.70
2022-08-31T14:51:30.708Z,17.70
2022-08-31T14:53:58.192Z,17.70
2022-08-31T14:56:28.426Z,17.60
2022-08-31T14:58:56.892Z,17.60
2022-08-31T15:01:26.937Z,17.60
2022-08-31T15:03:57.456Z,17.60
2022-08-31T15:06:27.493Z,17.60
2022-08-31T15:08:54.844Z,17.60
2022-08-31T15:11:22.296Z,17.60
2022-08-31T15:13:49.959Z,17.60
2022-08-31T15:16:17.375Z,17.50
2022-08-31T15:18:44.833Z,17.50
2022-08-31T15:21:12.529Z,17.50
2022-08-31T15:23:41.726Z,17.60
2022-08-31T15:26:12.027Z,17.60
2022-08-31T15:28:42.013Z,17.50
2022-08-31T15:31:23.579Z,17.60
2022-08-31T15:33:52.449Z,17.60
2022-08-31T15:36:23.840Z,17.60
2022-08-31T15:38:53.959Z,17.50
2022-08-31T15:41:22.704Z,17.60
2022-08-31T15:43:51.563Z,17.60
2022-08-31T15:46:39.797Z,17.60
2022-08-31T15:49:09.757Z,17.60
2022-08-31T15:51:46.880Z,17.60
2022-08-31T15:54:22.361Z,17.60
2022-08-31T15:56:51.247Z,17.60
2022-08-31T15:59:18.699Z,17.60
2022-08-31T16:01:46.195Z,17.60
2022-08-31T16:04:23.216Z,17.60
2022-08-31T16:06:51.882Z,17.60
2022-08-31T16:09:21.188Z,17.60
2022-08-31T16:11:49.579Z,17.60
2022-08-31T16:14:17.203Z,17.60
2022-08-31T16:16:46.564Z,17.60
2022-08-31T16:19:33.286Z,17.60
2022-08-31T16:22:03.120Z,17.50
2022-08-31T16:24:37.007Z,17.50
2022-08-31T16:27:06.431Z,17.50
2022-08-31T16:29:34.091Z,17.50
2022-08-31T16:32:02.469Z,17.50
2022-08-31T16:34:31.468Z,17.50
2022-08-31T16:36:59.918Z,17.50
2022-08-31T16:39:28.385Z,17.50
2022-08-31T16:41:55.861Z,17.60
2022-08-31T16:44:23.265Z,17.50
2022-08-31T16:46:59.147Z,17.60
2022-08-31T16:49:33.494Z,17.60
2022-08-31T16:52:05.937Z,17.60
2022-08-31T16:54:34.082Z,17.60
2022-08-31T16:57:01.430Z,17.50
2022-08-31T16:59:29.371Z,17.50
2022-08-31T17:01:56.806Z,17.50
2022-08-31T17:04:50.559Z,17.50
2022-08-31T17:07:13.880Z,17.50
2022-08-31T17:09:41.619Z,17.50
2022-08-31T17:12:14.037Z,17.50
2022-08-31T17:14:47.118Z,17.50
2022-08-31T17:17:16.443Z,17.40
2022-08-31T17:19:46.744Z,17.40
2022-08-31T17:22:23.357Z,17.40
2022-08-31T17:24:56.350Z,17.40
2022-08-31T17:27:24.054Z,17.40
2022-08-31T17:29:52.016Z,17.30
2022-08-31T17:32:24.924Z,17.30
2022-08-31T17:34:54.473Z,17.30
2022-08-31T17:37:26.500Z,17.30
2022-08-31T17:39:53.996Z,17.20
2022-08-31T17:42:22.028Z,17.20
2022-08-31T17:44:50.806Z,17.20
2022-08-31T17:47:18.247Z,17.20
2022-08-31T17:49:46.842Z,17.20
2022-08-31T17:52:14.451Z,17.20
2022-08-31T17:54:43.208Z,17.20
2022-08-31T17:57:12.631Z,17.20
2022-08-31T17:59:41.859Z,17.20
2022-08-31T18:02:17.848Z,17.10
2022-08-31T18:04:45.245Z,17.10
2022-08-31T18:07:12.623Z,17.10
2022-08-31T18:09:41.439Z,17.10
2022-08-31T18:12:08.963Z,17.10
2022-08-31T18:14:38.057Z,17.00
2022-08-31T18:17:07.132Z,17.00
2022-08-31T18:19:34.701Z,17.00
2022-08-31T18:22:02.181Z,17.00
2022-08-31T18:24:35.407Z,17.00
2022-08-31T18:27:04.124Z,17.00
2022-08-31T18:29:33.119Z,17.00
2022-08-31T18:32:03.999Z,17.00
2022-08-31T18:34:34.446Z,17.00
2022-08-31T18:37:03.286Z,17.00
2022-08-31T18:39:52.110Z,17.00
2022-08-31T18:42:41.671Z,17.00
2022-08-31T18:45:15.655Z,17.00
2022-08-31T18:47:43.331Z,17.00
2022-08-31T18:50:10.672Z,17.00
2022-08-31T18:52:40.196Z,16.90
2022-08-31T18:55:07.936Z,16.90
2022-08-31T18:57:48.425Z,16.90
2022-08-31T19:00:17.052Z,17.00
2022-08-31T19:02:44.949Z,16.90
2022-08-31T19:05:13.264Z,16.90
2022-08-31T19:07:41.224Z,16.90
2022-08-31T19:10:12.875Z,16.90
2022-08-31T19:12:42.694Z,16.90
2022-08-31T19:15:11.769Z,16.90
2022-08-31T19:17:41.809Z,16.90
2022-08-31T19:20:10.479Z,17.00
2022-08-31T19:22:38.244Z,16.90
2022-08-31T19:25:08.031Z,16.90
2022-08-31T19:27:36.681Z,16.90
2022-08-31T19:30:06.035Z,16.90
2022-08-31T19:32:33.895Z,16.80
2022-08-31T19:35:01.281Z,16.90
2022-08-31T19:37:28.639Z,16.80
2022-08-31T19:39:56.020Z,16.80
2022-08-31T19:42:40.318Z,16.80
2022-08-31T19:45:24.798Z,16.80
2022-08-31T19:47:52.748Z,16.80
2022-08-31T19:50:20.118Z,16.80
2022-08-31T19:52:48.674Z,16.80
2022-08-31T19:55:16.043Z,16.70
2022-08-31T19:57:43.497Z,16.80
2022-08-31T20:00:11.727Z,16.80
2022-08-31T20:02:42.248Z,16.70
2022-08-31T20:05:10.283Z,16.80
2022-08-31T20:07:39.807Z,16.80
2022-08-31T20:10:07.884Z,16.70
2022-08-31T20:12:35.279Z,16.70
2022-08-31T20:15:03.296Z,16.70
2022-08-31T20:17:30.657Z,16.70
2022-08-31T20:19:59.915Z,16.70
2022-08-31T20:22:28.135Z,16.60
2022-08-31T20:25:00.742Z,16.60
2022-08-31T20:27:28.209Z,16.60
2022-08-31T20:29:57.064Z,16.60
2022-08-31T20:32:25.814Z,16.60
2022-08-31T20:34:55.927Z,16.60
2022-08-31T20:37:24.626Z,16.60
2022-08-31T20:39:52.065Z,16.60
2022-08-31T20:42:25.694Z,16.60
2022-08-31T20:44:53.158Z,16.70
2022-08-31T20:47:40.794Z,16.70
2022-08-31T20:50:11.464Z,16.70
2022-08-31T20:52:40.046Z,16.70
2022-08-31T20:55:07.912Z,16.70
2022-08-31T20:57:35.988Z,16.70
2022-08-31T21:00:05.855Z,16.70
2022-08-31T21:02:34.706Z,16.70
2022-08-31T21:07:52.275Z,16.70
2022-08-31T21:10:29.583Z,16.70
2022-08-31T21:13:10.043Z,16.60
2022-08-31T21:15:46.927Z,16.60
2022-08-31T21:18:18.027Z,16.60
2022-08-31T21:20:46.201Z,16.60
2022-08-31T21:23:13.656Z,16.60
2022-08-31T21:25:45.669Z,16.70
2022-08-31T21:28:14.296Z,16.70
2022-08-31T21:30:41.719Z,16.70
2022-08-31T21:33:09.069Z,16.70
2022-08-31T21:35:36.435Z,16.70
2022-08-31T21:38:04.962Z,16.70
2022-08-31T21:40:32.430Z,16.70
2022-08-31T21:43:00.127Z,16.70
2022-08-31T21:45:27.480Z,16.60
2022-08-31T21:47:54.869Z,16.70
2022-08-31T21:50:22.286Z,16.60
2022-08-31T21:52:51.331Z,16.60
2022-08-31T21:55:18.844Z,16.60
2022-08-31T21:57:46.194Z,16.70
2022-08-31T22:00:16.129Z,16.60
2022-08-31T22:02:46.916Z,16.60
2022-08-31T22:05:14.423Z,16.50
2022-08-31T22:07:41.831Z,16.50
2022-08-31T22:10:11.328Z,16.50
2022-08-31T22:12:38.676Z,16.60
2022-08-31T22:15:10.173Z,16.50
2022-08-31T22:18:02.109Z,16.50
2022-08-31T22:20:27.765Z,16.40
2022-08-31T22:22:55.435Z,16.50
2022-08-31T22:25:22.858Z,16.50
2022-08-31T22:27:51.346Z,16.50
2022-08-31T22:30:20.105Z,16.40
2022-08-31T22:32:48.003Z,16.40
2022-08-31T22:35:15.895Z,16.40
2022-08-31T22:37:43.966Z,16.40
2022-08-31T22:40:17.177Z,16.40
2022-08-31T22:42:49.310Z,16.40
2022-08-31T22:45:16.896Z,16.40
2022-08-31T22:47:49.843Z,16.40
2022-08-31T22:50:17.830Z,16.40
2022-08-31T22:52:45.739Z,16.30
2022-08-31T22:55:13.114Z,16.40
2022-08-31T22:57:40.461Z,16.30
2022-08-31T23:00:12.084Z,16.30
2022-08-31T23:02:44.873Z,16.40
2022-08-31T23:05:16.135Z,16.30
2022-08-31T23:07:43.525Z,16.30
2022-08-31T23:10:13.873Z,16.30
2022-08-31T23:12:41.218Z,16.40
2022-08-31T23:15:12.962Z,16.30
2022-08-31T23:17:44.290Z,16.30
2022-08-31T23:20:16.813Z,16.30
2022-08-31T23:22:44.145Z,16.30
2022-08-31T23:25:14.005Z,16.40
2022-08-31T23:27:41.364Z,16.30
2022-08-31T23:30:09.753Z,16.40
2022-08-31T23:32:37.090Z,16.40
2022-08-31T23:35:05.553Z,16.40
2022-08-31T23:37:33.048Z,16.30
2022-08-31T23:40:00.683Z,16.30
2022-08-31T23:42:28.451Z,16.30
2022-08-31T23:44:56.033Z,16.30
2022-08-31T23:47:25.855Z,16.20
2022-08-31T23:49:53.335Z,16.20
2022-08-31T23:52:23.171Z,16.30
2022-08-31T23:54:52.351Z,16.20
2022-08-31T23:57:32.720Z,16.20
